createdAt,value
2018-10-16T00:00:57.030Z,1008.58
2018-10-16T00:01:57.115Z,1008.62
2018-10-16T00:02:56.884Z,1008.60
2018-10-16T00:03:56.833Z,1008.64
2018-10-16T00:04:57.167Z,1008.63
2018-10-16T00:06:56.829Z,1008.65
2018-10-16T00:07:56.763Z,1008.73
2018-10-16T00:08:56.739Z,1008.71
2018-10-16T00:10:57.112Z,1008.74
2018-10-16T00:11:56.704Z,1008.71
2018-10-16T00:12:56.670Z,1008.68
2018-10-16T00:13:56.660Z,1008.70
2018-10-16T00:14:56.814Z,1008.70
2018-10-16T00:15:56.745Z,1008.68
2018-10-16T00:16:56.965Z,1008.72
2018-10-16T00:17:56.659Z,1008.71
2018-10-16T00:18:56.581Z,1008.69
2018-10-16T00:19:56.621Z,1008.69
2018-10-16T00:20:56.610Z,1008.68
2018-10-16T00:21:56.535Z,1008.70
2018-10-16T00:22:56.863Z,1008.66
2018-10-16T00:23:56.551Z,1008.70
2018-10-16T00:24:56.550Z,1008.68
2018-10-16T00:25:56.526Z,1008.70
2018-10-16T00:26:56.494Z,1008.69
2018-10-16T00:27:56.412Z,1008.74
2018-10-16T00:28:56.776Z,1008.70
2018-10-16T00:34:56.586Z,1008.76
2018-10-16T00:35:56.350Z,1008.76
2018-10-16T00:36:56.336Z,1008.76
2018-10-16T00:37:56.316Z,1008.80
2018-10-16T00:38:56.221Z,1008.82
2018-10-16T00:39:56.321Z,1008.77
2018-10-16T00:40:56.863Z,1008.77
2018-10-16T00:41:56.224Z,1008.80
2018-10-16T00:42:56.151Z,1008.78
2018-10-16T00:43:56.214Z,1008.80
2018-10-16T00:44:56.165Z,1008.84
2018-10-16T00:45:56.104Z,1008.81
2018-10-16T00:46:56.145Z,1008.83
2018-10-16T00:47:56.430Z,1008.81
2018-10-16T00:49:56.119Z,1008.80
2018-10-16T00:50:56.071Z,1008.79
2018-10-16T00:51:55.987Z,1008.83
2018-10-16T00:52:56.034Z,1008.83
2018-10-16T00:53:56.022Z,1008.81
2018-10-16T00:54:56.372Z,1008.82
2018-10-16T00:55:56.013Z,1008.82
2018-10-16T00:56:55.973Z,1008.81
2018-10-16T00:57:55.953Z,1008.80
2018-10-16T00:58:55.933Z,1008.80
2018-10-16T00:59:55.916Z,1008.77
2018-10-16T01:00:55.879Z,1008.77
2018-10-16T01:01:56.186Z,1008.81
2018-10-16T01:02:55.869Z,1008.80
2018-10-16T01:03:55.840Z,1008.84
2018-10-16T01:04:55.822Z,1008.86
2018-10-16T01:05:55.804Z,1008.90
2018-10-16T01:06:55.803Z,1008.88
2018-10-16T01:07:55.751Z,1008.89
2018-10-16T01:11:55.705Z,1008.92
2018-10-16T01:12:55.688Z,1008.93
2018-10-16T01:13:55.668Z,1008.90
2018-10-16T01:14:55.581Z,1008.89
2018-10-16T01:15:55.934Z,1008.88
2018-10-16T01:16:55.616Z,1008.88
2018-10-16T01:17:55.591Z,1008.91
2018-10-16T01:18:55.576Z,1008.88
2018-10-16T01:19:55.551Z,1008.89
2018-10-16T01:20:55.537Z,1008.87
2018-10-16T01:21:55.465Z,1008.95
2018-10-16T01:22:56.000Z,1008.92
2018-10-16T01:23:55.418Z,1008.94
2018-10-16T01:25:55.377Z,1009.01
2018-10-16T01:26:55.425Z,1009.04
2018-10-16T01:27:55.344Z,1009.03
2018-10-16T01:28:55.325Z,1009.01
2018-10-16T01:29:55.607Z,1009.00
2018-10-16T01:30:55.367Z,1008.98
2018-10-16T01:31:55.271Z,1009.04
2018-10-16T01:32:55.255Z,1009.01
2018-10-16T01:33:55.322Z,1009.05
2018-10-16T01:34:55.215Z,1009.07
2018-10-16T01:35:55.578Z,1009.08
2018-10-16T01:36:55.249Z,1009.06
2018-10-16T01:37:55.232Z,1009.10
2018-10-16T01:38:55.151Z,1009.10
2018-10-16T01:39:55.193Z,1009.09
2018-10-16T01:40:55.178Z,1009.09
2018-10-16T01:42:55.424Z,1009.12
2018-10-16T01:43:55.049Z,1009.14
2018-10-16T01:44:55.034Z,1009.17
2018-10-16T01:45:55.066Z,1009.14
2018-10-16T01:46:55.000Z,1009.15
2018-10-16T01:47:55.058Z,1009.14
2018-10-16T01:48:55.264Z,1009.08
2018-10-16T01:49:55.070Z,1009.11
2018-10-16T01:50:54.931Z,1009.13
2018-10-16T01:52:54.958Z,1009.11
2018-10-16T01:53:54.874Z,1009.08
2018-10-16T01:54:55.150Z,1009.11
2018-10-16T01:55:55.085Z,1009.09
2018-10-16T01:56:54.838Z,1009.05
2018-10-16T01:57:54.815Z,1009.08
2018-10-16T01:58:54.784Z,1009.06
2018-10-16T01:59:54.767Z,1009.03
2018-10-16T02:00:55.044Z,1009.05
2018-10-16T02:01:54.774Z,1009.06
2018-10-16T02:02:54.769Z,1009.05
2018-10-16T02:03:54.755Z,1009.06
2018-10-16T02:04:54.674Z,1009.08
2018-10-16T02:05:54.718Z,1009.09
2018-10-16T02:06:55.018Z,1009.12
2018-10-16T02:07:54.707Z,1009.12
2018-10-16T02:09:54.831Z,1009.09
2018-10-16T02:10:54.644Z,1009.11
2018-10-16T02:11:54.626Z,1009.11
2018-10-16T02:12:54.598Z,1009.16
2018-10-16T02:13:54.877Z,1009.09
2018-10-16T02:14:54.595Z,1009.10
2018-10-16T02:15:54.716Z,1009.11
2018-10-16T02:16:54.457Z,1009.06
2018-10-16T02:18:54.411Z,1009.07
2018-10-16T02:19:54.462Z,1009.08
2018-10-16T02:20:54.683Z,1009.08
2018-10-16T02:21:54.608Z,1009.11
2018-10-16T02:22:54.405Z,1009.10
2018-10-16T02:23:54.391Z,1009.08
2018-10-16T02:24:54.307Z,1009.09
2018-10-16T02:27:54.591Z,1009.11
2018-10-16T02:28:54.223Z,1009.15
2018-10-16T02:29:54.306Z,1009.14
2018-10-16T02:30:54.327Z,1009.15
2018-10-16T02:31:54.173Z,1009.17
2018-10-16T02:34:54.481Z,1009.18
2018-10-16T02:35:54.143Z,1009.16
2018-10-16T02:36:54.085Z,1009.18
2018-10-16T02:37:54.055Z,1009.21
2018-10-16T02:38:54.035Z,1009.19
2018-10-16T02:39:54.083Z,1009.21
2018-10-16T02:40:54.004Z,1009.20
2018-10-16T02:41:54.279Z,1009.19
2018-10-16T02:42:53.958Z,1009.22
2018-10-16T02:43:53.956Z,1009.22
2018-10-16T02:44:53.952Z,1009.23
2018-10-16T02:45:53.991Z,1009.25
2018-10-16T02:46:54.002Z,1009.26
2018-10-16T02:47:53.989Z,1009.24
2018-10-16T02:48:54.157Z,1009.26
2018-10-16T02:49:53.913Z,1009.28
2018-10-16T02:50:53.879Z,1009.28
2018-10-16T02:52:53.845Z,1009.27
2018-10-16T02:53:53.755Z,1009.27
2018-10-16T02:54:53.795Z,1009.30
2018-10-16T02:55:54.019Z,1009.31
2018-10-16T02:56:53.701Z,1009.34
2018-10-16T02:57:53.756Z,1009.34
2018-10-16T02:58:53.732Z,1009.31
2018-10-16T03:00:53.745Z,1009.37
2018-10-16T03:01:53.910Z,1009.36
2018-10-16T03:02:53.672Z,1009.38
2018-10-16T03:03:53.578Z,1009.42
2018-10-16T03:04:53.568Z,1009.39
2018-10-16T03:05:53.578Z,1009.41
2018-10-16T03:06:53.567Z,1009.40
2018-10-16T03:07:53.795Z,1009.41
2018-10-16T03:08:53.486Z,1009.43
2018-10-16T03:09:53.464Z,1009.41
2018-10-16T03:10:53.505Z,1009.43
2018-10-16T03:20:53.622Z,1009.48
2018-10-16T03:21:53.238Z,1009.46
2018-10-16T03:22:53.224Z,1009.47
2018-10-16T03:23:53.284Z,1009.46
2018-10-16T03:24:53.182Z,1009.44
2018-10-16T03:25:53.208Z,1009.45
2018-10-16T03:26:53.507Z,1009.47
2018-10-16T03:27:53.191Z,1009.43
2018-10-16T03:28:53.591Z,1009.41
2018-10-16T03:29:53.090Z,1009.43
2018-10-16T03:30:53.070Z,1009.40
2018-10-16T03:31:53.051Z,1009.39
2018-10-16T03:34:53.275Z,1009.44
2018-10-16T03:35:52.983Z,1009.46
2018-10-16T03:36:53.216Z,1009.45
2018-10-16T03:37:53.184Z,1009.47
2018-10-16T03:38:53.029Z,1009.48
2018-10-16T03:40:52.877Z,1009.47
2018-10-16T03:41:52.881Z,1009.44
2018-10-16T03:42:52.844Z,1009.45
2018-10-16T03:43:52.823Z,1009.43
2018-10-16T03:44:52.804Z,1009.41
2018-10-16T03:45:52.797Z,1009.44
2018-10-16T03:46:53.135Z,1009.44
2018-10-16T03:47:52.746Z,1009.41
2018-10-16T03:48:52.779Z,1009.43
2018-10-16T03:49:52.712Z,1009.45
2018-10-16T03:50:52.757Z,1009.45
2018-10-16T03:51:52.743Z,1009.45
2018-10-16T03:52:52.705Z,1009.44
2018-10-16T03:53:52.970Z,1009.47
2018-10-16T03:59:53.127Z,1009.41
2018-10-16T04:00:52.858Z,1009.43
2018-10-16T04:01:52.596Z,1009.41
2018-10-16T04:02:52.607Z,1009.53
2018-10-16T04:03:52.451Z,1009.53
2018-10-16T04:04:52.430Z,1009.52
2018-10-16T04:05:52.421Z,1009.50
2018-10-16T04:06:52.831Z,1009.50
2018-10-16T04:08:52.464Z,1009.48
2018-10-16T04:09:52.336Z,1009.47
2018-10-16T04:10:52.396Z,1009.48
2018-10-16T04:11:52.365Z,1009.48
2018-10-16T04:12:52.347Z,1009.50
2018-10-16T04:13:52.767Z,1009.46
2018-10-16T04:14:52.252Z,1009.45
2018-10-16T04:15:52.231Z,1009.47
2018-10-16T04:17:52.189Z,1009.50
2018-10-16T04:18:52.416Z,1009.52
2018-10-16T04:19:52.158Z,1009.49
2018-10-16T04:20:52.438Z,1009.50
2018-10-16T04:21:52.112Z,1009.51
2018-10-16T04:23:52.074Z,1009.53
2018-10-16T04:25:52.932Z,1009.54
2018-10-16T04:26:52.388Z,1009.53
2018-10-16T04:27:52.323Z,1009.53
2018-10-16T04:28:52.146Z,1009.52
2018-10-16T04:29:52.089Z,1009.50
2018-10-16T04:30:52.418Z,1009.48
2018-10-16T04:31:52.247Z,1009.54
2018-10-16T04:32:52.279Z,1009.54
2018-10-16T04:33:51.889Z,1009.58
2018-10-16T04:34:51.876Z,1009.54
2018-10-16T04:36:51.943Z,1009.57
2018-10-16T04:37:51.925Z,1009.60
2018-10-16T04:38:52.105Z,1009.60
2018-10-16T04:39:51.945Z,1009.58
2018-10-16T04:40:51.826Z,1009.60
2018-10-16T04:41:58.157Z,1009.59
2018-10-16T04:42:51.719Z,1009.59
2018-10-16T04:44:51.986Z,1009.59
2018-10-16T04:45:51.673Z,1009.60
2018-10-16T04:53:51.572Z,1009.79
2018-10-16T04:54:51.622Z,1009.79
2018-10-16T04:55:51.592Z,1009.82
2018-10-16T04:56:52.111Z,1009.80
2018-10-16T04:57:52.151Z,1009.83
2018-10-16T04:58:51.864Z,1009.80
2018-10-16T04:59:52.302Z,1009.82
2018-10-16T05:00:51.959Z,1009.76
2018-10-16T05:01:52.029Z,1009.75
2018-10-16T05:02:51.770Z,1009.76
2018-10-16T05:03:51.691Z,1009.74
2018-10-16T05:04:51.366Z,1009.78
2018-10-16T05:05:51.409Z,1009.77
2018-10-16T05:06:51.389Z,1009.80
2018-10-16T05:07:51.360Z,1009.81
2018-10-16T05:08:51.335Z,1009.78
2018-10-16T05:09:51.668Z,1009.79
2018-10-16T05:10:51.297Z,1009.77
2018-10-16T05:11:51.278Z,1009.78
2018-10-16T05:12:51.225Z,1009.77
2018-10-16T05:15:51.450Z,1009.78
2018-10-16T05:16:51.258Z,1009.78
2018-10-16T05:18:51.055Z,1009.79
2018-10-16T05:20:51.063Z,1009.76
2018-10-16T05:23:50.951Z,1009.81
2018-10-16T05:24:50.938Z,1009.84
2018-10-16T05:25:50.938Z,1009.82
2018-10-16T05:29:51.305Z,1009.88
2018-10-16T05:30:50.960Z,1009.87
2018-10-16T05:31:50.867Z,1009.90
2018-10-16T05:32:55.907Z,1009.83
2018-10-16T05:33:50.825Z,1009.88
2018-10-16T05:34:50.862Z,1009.87
2018-10-16T05:36:55.980Z,1009.92
2018-10-16T05:45:51.038Z,1009.99
2018-10-16T05:46:50.507Z,1009.99
2018-10-16T05:47:50.490Z,1009.96
2018-10-16T05:48:50.537Z,1009.91
2018-10-16T05:49:50.569Z,1009.97
2018-10-16T05:50:50.781Z,1009.98
2018-10-16T05:53:50.378Z,1009.97
2018-10-16T05:54:50.348Z,1009.97
2018-10-16T05:57:50.647Z,1009.98
2018-10-16T05:58:50.534Z,1010.02
2018-10-16T05:59:50.489Z,1010.02
2018-10-16T06:01:50.398Z,1010.01
2018-10-16T06:04:50.159Z,1010.01
2018-10-16T06:05:50.183Z,1010.04
2018-10-16T06:06:50.139Z,1010.03
2018-10-16T06:07:50.115Z,1010.01
2018-10-16T06:08:50.141Z,1010.03
2018-10-16T06:09:50.426Z,1010.04
2018-10-16T06:11:50.276Z,1010.02
2018-10-16T06:17:50.073Z,1010.09
2018-10-16T06:18:49.951Z,1010.09
2018-10-16T06:21:51.072Z,1010.10
2018-10-16T06:36:49.561Z,1010.45
2018-10-16T06:37:49.777Z,1010.46
2018-10-16T06:38:49.519Z,1010.48
2018-10-16T06:39:49.759Z,1010.47
2018-10-16T06:44:49.448Z,1010.61
2018-10-16T06:47:49.805Z,1010.64
2018-10-16T06:48:50.031Z,1010.60
2018-10-16T06:52:49.317Z,1010.66
2018-10-16T06:53:49.299Z,1010.70
2018-10-16T06:54:49.728Z,1010.69
2018-10-16T06:55:49.200Z,1010.65
2018-10-16T06:56:49.236Z,1010.68
2018-10-16T06:57:49.173Z,1010.71
2018-10-16T06:58:49.224Z,1010.73
2018-10-16T07:01:49.161Z,1010.77
2018-10-16T07:03:49.127Z,1010.76
2018-10-16T07:04:49.095Z,1010.76
2018-10-16T07:05:49.249Z,1010.78
2018-10-16T07:11:48.965Z,1010.90
2018-10-16T07:13:48.865Z,1010.93
2018-10-16T07:19:48.868Z,1010.90
2018-10-16T07:20:48.828Z,1010.91
2018-10-16T07:21:49.105Z,1010.91
2018-10-16T07:22:48.790Z,1010.90
2018-10-16T07:23:48.837Z,1010.98
2018-10-16T07:32:50.309Z,1011.04
2018-10-16T07:40:48.398Z,1011.11
2018-10-16T07:41:48.460Z,1011.11
2018-10-16T07:42:48.436Z,1011.14
2018-10-16T07:43:48.352Z,1011.17
2018-10-16T07:48:48.326Z,1011.16
2018-10-16T07:49:48.248Z,1011.21
2018-10-16T07:50:48.236Z,1011.16
2018-10-16T08:08:48.151Z,1011.49
2018-10-16T08:09:48.006Z,1011.51
2018-10-16T08:27:49.152Z,1011.58
2018-10-16T08:28:48.273Z,1011.62
2018-10-16T08:29:48.929Z,1011.63
2018-10-16T08:30:49.020Z,1011.60
2018-10-16T08:31:47.949Z,1011.65
2018-10-16T08:33:47.791Z,1011.65
2018-10-16T08:35:47.730Z,1011.73
2018-10-16T08:45:47.808Z,1011.76
2018-10-16T08:46:47.556Z,1011.76
2018-10-16T08:47:47.475Z,1011.79
2018-10-16T08:48:47.823Z,1011.78
2018-10-16T08:51:47.794Z,1011.77
2018-10-16T08:52:47.500Z,1011.78
2018-10-16T08:53:47.748Z,1011.77
2018-10-16T08:54:47.619Z,1011.74
2018-10-16T08:55:47.463Z,1011.74
2018-10-16T08:56:47.439Z,1011.75
2018-10-16T08:57:47.727Z,1011.76
2018-10-16T08:58:47.400Z,1011.75
2018-10-16T08:59:47.381Z,1011.69
2018-10-16T09:00:47.319Z,1011.74
2018-10-16T09:01:47.306Z,1011.72
2018-10-16T09:02:47.294Z,1011.72
2018-10-16T09:03:47.653Z,1011.75
2018-10-16T09:04:47.345Z,1011.72
2018-10-16T09:05:47.269Z,1011.73
2018-10-16T09:06:47.362Z,1011.72
2018-10-16T09:07:47.247Z,1011.72
2018-10-16T09:08:47.285Z,1011.78
2018-10-16T09:09:47.596Z,1011.75
2018-10-16T09:10:47.310Z,1011.75
2018-10-16T09:14:48.259Z,1011.75
2018-10-16T09:17:47.174Z,1011.73
2018-10-16T09:18:47.244Z,1011.75
2018-10-16T09:19:47.120Z,1011.76
2018-10-16T09:20:47.167Z,1011.74
2018-10-16T09:21:47.402Z,1011.74
2018-10-16T09:23:47.120Z,1011.80
2018-10-16T09:24:47.308Z,1011.81
2018-10-16T09:25:47.060Z,1011.79
2018-10-16T09:26:47.307Z,1011.74
2018-10-16T09:29:47.072Z,1011.76
2018-10-16T09:32:47.000Z,1011.75
2018-10-16T09:36:47.919Z,1011.80
2018-10-16T09:38:46.993Z,1011.86
2018-10-16T09:39:46.999Z,1011.91
2018-10-16T09:42:47.249Z,1011.93
2018-10-16T09:43:46.949Z,1011.90
2018-10-16T09:44:46.958Z,1011.89
2018-10-16T09:45:47.041Z,1011.88
2018-10-16T09:46:46.893Z,1011.91
2018-10-16T09:47:47.075Z,1011.82
2018-10-16T09:48:46.968Z,1011.92
2018-10-16T09:49:47.419Z,1011.89
2018-10-16T09:50:46.897Z,1011.89
2018-10-16T09:51:46.839Z,1011.92
2018-10-16T09:53:47.369Z,1011.90
2018-10-16T09:54:46.861Z,1011.92
2018-10-16T09:55:46.805Z,1011.91
2018-10-16T09:57:47.669Z,1012.03
2018-10-16T09:58:46.788Z,1012.09
2018-10-16T09:59:46.950Z,1012.18
2018-10-16T10:00:46.800Z,1012.08
2018-10-16T10:01:47.075Z,1012.13
2018-10-16T10:03:47.135Z,1012.14
2018-10-16T10:04:47.040Z,1012.10
2018-10-16T10:05:46.781Z,1011.98
2018-10-16T10:09:46.765Z,1012.07
2018-10-16T10:10:46.785Z,1012.10
2018-10-16T10:13:46.686Z,1012.07
2018-10-16T10:14:46.675Z,1012.03
2018-10-16T10:15:46.726Z,1011.97
2018-10-16T10:16:46.796Z,1011.92
2018-10-16T10:17:46.958Z,1011.84
2018-10-16T10:18:46.762Z,1011.96
2018-10-16T10:19:46.760Z,1011.99
2018-10-16T10:20:46.708Z,1011.96
2018-10-16T10:21:46.666Z,1012.08
2018-10-16T10:22:46.694Z,1012.00
2018-10-16T10:23:46.983Z,1012.15
2018-10-16T10:25:46.613Z,1012.15
2018-10-16T10:26:46.667Z,1012.11
2018-10-16T10:27:46.609Z,1012.09
2018-10-16T10:28:46.645Z,1012.15
2018-10-16T10:29:47.018Z,1012.17
2018-10-16T10:35:46.920Z,1012.21
2018-10-16T10:36:46.613Z,1012.26
2018-10-16T10:37:46.562Z,1012.26
2018-10-16T10:38:46.645Z,1012.22
2018-10-16T10:39:46.949Z,1012.29
2018-10-16T10:40:46.628Z,1012.28
2018-10-16T10:41:46.849Z,1012.24
2018-10-16T10:44:46.542Z,1012.24
2018-10-16T10:45:46.534Z,1012.21
2018-10-16T10:46:46.775Z,1012.22
2018-10-16T10:47:46.541Z,1012.24
2018-10-16T10:48:46.876Z,1012.25
2018-10-16T10:49:46.548Z,1012.26
2018-10-16T10:56:47.215Z,1012.19
2018-10-16T10:57:46.647Z,1012.03
2018-10-16T10:58:46.482Z,1012.00
2018-10-16T10:59:46.479Z,1011.97
2018-10-16T11:00:46.833Z,1011.97
2018-10-16T11:01:46.474Z,1012.01
2018-10-16T11:02:46.474Z,1012.06
2018-10-16T11:03:46.520Z,1012.02
2018-10-16T11:06:46.757Z,1012.00
2018-10-16T11:09:46.450Z,1012.17
2018-10-16T11:10:46.653Z,1012.38
2018-10-16T11:11:46.452Z,1012.33
2018-10-16T11:12:46.780Z,1012.46
2018-10-16T11:13:46.444Z,1012.42
2018-10-16T11:14:46.781Z,1012.38
2018-10-16T11:15:46.643Z,1012.11
2018-10-16T11:16:47.917Z,1012.31
2018-10-16T11:17:46.575Z,1012.31
2018-10-16T11:18:46.577Z,1012.37
2018-10-16T11:19:46.793Z,1012.40
2018-10-16T11:20:46.414Z,1012.37
2018-10-16T11:21:46.511Z,1012.38
2018-10-16T11:23:46.409Z,1012.50
2018-10-16T11:24:46.409Z,1012.48
2018-10-16T11:25:55.201Z,1012.45
2018-10-16T11:26:49.482Z,1012.48
2018-10-16T11:27:47.006Z,1012.36
2018-10-16T11:28:46.404Z,1012.24
2018-10-16T11:29:46.547Z,1012.24
2018-10-16T11:30:46.389Z,1012.28
2018-10-16T11:31:46.384Z,1012.54
2018-10-16T11:32:46.679Z,1012.48
2018-10-16T11:33:46.383Z,1012.44
2018-10-16T11:34:46.381Z,1012.48
2018-10-16T11:35:46.421Z,1012.45
2018-10-16T11:36:46.469Z,1012.49
2018-10-16T11:37:46.375Z,1012.48
2018-10-16T11:39:46.734Z,1012.55
2018-10-16T11:40:46.455Z,1012.57
2018-10-16T11:41:46.519Z,1012.54
2018-10-16T11:42:46.656Z,1012.53
2018-10-16T11:43:46.414Z,1012.64
2018-10-16T11:44:46.364Z,1012.56
2018-10-16T11:45:46.424Z,1012.65
2018-10-16T11:46:46.791Z,1012.72
2018-10-16T11:47:46.333Z,1012.62
2018-10-16T11:48:46.325Z,1012.12
2018-10-16T11:50:46.371Z,1011.98
2018-10-16T11:58:46.299Z,1012.14
2018-10-16T11:59:46.536Z,1011.91
2018-10-16T12:00:46.717Z,1012.10
2018-10-16T12:01:46.529Z,1012.20
2018-10-16T12:02:46.337Z,1012.81
2018-10-16T12:03:46.271Z,1012.24
2018-10-16T12:04:46.532Z,1012.10
2018-10-16T12:05:46.273Z,1011.96
2018-10-16T12:06:46.625Z,1012.11
2018-10-16T12:07:46.336Z,1012.31
2018-10-16T12:08:46.312Z,1012.59
2018-10-16T12:09:46.621Z,1012.46
2018-10-16T12:10:46.351Z,1012.69
2018-10-16T12:11:46.286Z,1012.67
2018-10-16T12:12:46.587Z,1012.45
2018-10-16T12:14:46.222Z,1012.27
2018-10-16T12:15:46.230Z,1012.70
2018-10-16T12:16:46.293Z,1012.30
2018-10-16T12:17:46.381Z,1012.17
2018-10-16T12:18:46.574Z,1012.60
2018-10-16T12:19:46.216Z,1012.27
2018-10-16T12:20:46.206Z,1012.50
2018-10-16T12:21:46.202Z,1012.44
2018-10-16T12:22:46.651Z,1012.84
2018-10-16T12:23:46.335Z,1012.01
2018-10-16T12:24:46.494Z,1012.09
2018-10-16T12:25:46.267Z,1012.02
2018-10-16T12:26:46.182Z,1012.07
2018-10-16T12:27:46.261Z,1012.12
2018-10-16T12:28:46.598Z,1012.01
2018-10-16T12:29:46.164Z,1012.15
2018-10-16T12:30:46.608Z,1012.03
2018-10-16T12:31:46.163Z,1012.24
2018-10-16T12:32:46.335Z,1012.25
2018-10-16T12:34:46.202Z,1012.51
2018-10-16T12:35:46.268Z,1012.71
2018-10-16T12:36:46.512Z,1012.84
2018-10-16T12:37:46.387Z,1012.81
2018-10-16T12:38:46.182Z,1012.86
2018-10-16T12:39:46.228Z,1012.80
2018-10-16T12:40:46.333Z,1012.70
2018-10-16T12:41:46.101Z,1012.81
2018-10-16T12:42:46.689Z,1012.77
2018-10-16T12:43:46.168Z,1012.67
2018-10-16T12:44:46.209Z,1012.30
2018-10-16T12:45:46.133Z,1012.47
2018-10-16T12:46:46.066Z,1012.33
2018-10-16T12:47:46.131Z,1012.71
2018-10-16T12:48:46.424Z,1012.56
2018-10-16T12:49:46.065Z,1012.67
2018-10-16T12:50:46.055Z,1012.01
2018-10-16T12:51:46.048Z,1011.93
2018-10-16T12:52:46.057Z,1012.09
2018-10-16T12:53:46.066Z,1012.35
2018-10-16T12:54:46.050Z,1012.70
2018-10-16T12:55:46.520Z,1012.74
2018-10-16T12:56:46.068Z,1012.30
2018-10-16T12:57:46.046Z,1012.70
2018-10-16T12:58:46.134Z,1012.90
2018-10-16T12:59:46.010Z,1012.25
2018-10-16T13:02:46.367Z,1011.91
2018-10-16T13:03:46.132Z,1011.89
2018-10-16T13:06:45.977Z,1011.98
2018-10-16T13:07:46.069Z,1011.89
2018-10-16T13:08:45.968Z,1012.27
2018-10-16T13:10:46.293Z,1011.87
2018-10-16T13:11:45.949Z,1011.80
2018-10-16T13:12:45.952Z,1011.72
2018-10-16T13:13:45.946Z,1011.78
2018-10-16T13:14:46.002Z,1011.80
2018-10-16T13:15:45.926Z,1011.84
2018-10-16T13:17:45.952Z,1011.85
2018-10-16T13:18:45.927Z,1011.85
2018-10-16T13:19:45.959Z,1011.89
2018-10-16T13:20:45.998Z,1011.94
2018-10-16T13:21:45.883Z,1012.14
2018-10-16T13:22:45.948Z,1012.05
2018-10-16T13:23:46.709Z,1012.00
2018-10-16T13:24:46.041Z,1012.26
2018-10-16T13:25:45.929Z,1011.98
2018-10-16T13:26:45.973Z,1012.03
2018-10-16T13:27:46.016Z,1012.03
2018-10-16T13:28:46.169Z,1012.07
2018-10-16T13:29:45.951Z,1011.96
2018-10-16T13:30:46.162Z,1011.82
2018-10-16T13:31:45.882Z,1011.88
2018-10-16T13:33:45.849Z,1011.86
2018-10-16T13:34:45.831Z,1011.76
2018-10-16T13:35:46.033Z,1011.73
2018-10-16T13:36:45.859Z,1011.77
2018-10-16T13:38:45.844Z,1012.15
2018-10-16T13:39:45.909Z,1012.12
2018-10-16T13:40:45.756Z,1012.32
2018-10-16T13:47:45.723Z,1012.23
2018-10-16T13:48:45.769Z,1012.29
2018-10-16T13:49:46.145Z,1012.29
2018-10-16T13:50:45.743Z,1012.35
2018-10-16T13:51:46.247Z,1012.31
2018-10-16T13:57:45.725Z,1011.87
2018-10-16T13:58:48.742Z,1012.27
2018-10-16T13:59:45.647Z,1012.44
2018-10-16T14:00:45.830Z,1012.16
2018-10-16T14:01:45.972Z,1012.17
2018-10-16T14:02:45.687Z,1011.88
2018-10-16T14:03:45.987Z,1012.27
2018-10-16T14:04:45.626Z,1012.42
2018-10-16T14:05:45.685Z,1012.45
2018-10-16T14:06:45.593Z,1012.47
2018-10-16T14:07:45.880Z,1012.36
2018-10-16T14:08:45.686Z,1012.20
2018-10-16T14:09:45.638Z,1012.40
2018-10-16T14:10:45.700Z,1012.33
2018-10-16T14:11:45.762Z,1012.42
2018-10-16T14:12:45.914Z,1012.32
2018-10-16T14:13:45.887Z,1012.35
2018-10-16T14:14:45.584Z,1012.38
2018-10-16T14:15:45.574Z,1012.33
2018-10-16T14:16:45.618Z,1012.35
2018-10-16T14:17:45.510Z,1012.42
2018-10-16T14:19:45.853Z,1012.44
2018-10-16T14:20:45.493Z,1012.06
2018-10-16T14:21:45.501Z,1012.31
2018-10-16T14:23:45.725Z,1012.34
2018-10-16T14:25:45.471Z,1012.10
2018-10-16T14:26:45.831Z,1012.36
2018-10-16T14:27:45.794Z,1012.37
2018-10-16T14:28:45.512Z,1012.18
2018-10-16T14:29:45.525Z,1012.38
2018-10-16T14:30:45.576Z,1012.03
2018-10-16T14:31:45.421Z,1011.83
2018-10-16T14:32:45.483Z,1011.78
2018-10-16T14:33:45.800Z,1011.77
2018-10-16T14:34:45.736Z,1011.80
2018-10-16T14:35:45.843Z,1011.78
2018-10-16T14:36:45.760Z,1011.78
2018-10-16T14:37:47.237Z,1011.74
2018-10-16T14:38:46.677Z,1011.72
2018-10-16T14:39:45.696Z,1011.72
2018-10-16T14:40:46.087Z,1011.74
2018-10-16T14:41:46.014Z,1011.67
2018-10-16T14:42:45.405Z,1011.68
2018-10-16T14:43:45.398Z,1011.62
2018-10-16T14:44:45.360Z,1011.65
2018-10-16T14:45:45.640Z,1011.62
2018-10-16T14:46:45.404Z,1011.62
2018-10-16T14:47:45.333Z,1011.62
2018-10-16T14:48:45.306Z,1011.62
2018-10-16T14:49:45.289Z,1011.63
2018-10-16T14:50:45.338Z,1011.61
2018-10-16T14:52:45.616Z,1011.67
2018-10-16T14:53:45.251Z,1011.65
2018-10-16T14:54:45.240Z,1011.66
2018-10-16T14:55:45.302Z,1011.68
2018-10-16T14:56:45.298Z,1011.71
2018-10-16T14:57:45.325Z,1011.67
2018-10-16T14:58:45.561Z,1011.69
2018-10-16T14:59:45.239Z,1011.72
2018-10-16T15:00:45.185Z,1011.71
2018-10-16T15:01:45.171Z,1011.80
2018-10-16T15:03:45.270Z,1011.94
2018-10-16T15:04:45.943Z,1011.95
2018-10-16T15:05:45.528Z,1011.93
2018-10-16T15:06:47.626Z,1011.91
2018-10-16T15:07:46.380Z,1011.96
2018-10-16T15:08:45.667Z,1011.93
2018-10-16T15:09:45.145Z,1011.91
2018-10-16T15:10:45.161Z,1011.94
2018-10-16T15:11:45.379Z,1011.95
2018-10-16T15:12:45.139Z,1011.92
2018-10-16T15:13:45.128Z,1011.94
2018-10-16T15:14:45.117Z,1011.93
2018-10-16T15:15:45.114Z,1011.97
2018-10-16T15:16:45.034Z,1011.93
2018-10-16T15:17:45.321Z,1011.92
2018-10-16T15:18:45.189Z,1011.91
2018-10-16T15:19:45.076Z,1011.90
2018-10-16T15:20:45.066Z,1011.92
2018-10-16T15:21:45.050Z,1011.90
2018-10-16T15:22:45.064Z,1011.87
2018-10-16T15:24:45.333Z,1011.81
2018-10-16T15:25:45.032Z,1011.79
2018-10-16T15:26:45.025Z,1011.74
2018-10-16T15:27:44.996Z,1011.80
2018-10-16T15:28:44.953Z,1011.79
2018-10-16T15:29:45.016Z,1011.78
2018-10-16T15:30:45.245Z,1011.77
2018-10-16T15:31:44.949Z,1011.78
2018-10-16T15:32:44.940Z,1011.76
2018-10-16T15:33:45.127Z,1011.78
2018-10-16T15:34:47.169Z,1011.79
2018-10-16T15:35:45.434Z,1011.78
2018-10-16T15:36:45.288Z,1011.74
2018-10-16T15:37:44.929Z,1011.76
2018-10-16T15:38:44.820Z,1011.74
2018-10-16T15:39:44.812Z,1011.75
2018-10-16T15:40:44.884Z,1011.77
2018-10-16T15:41:44.849Z,1011.79
2018-10-16T15:42:46.150Z,1011.75
2018-10-16T15:43:44.883Z,1011.78
2018-10-16T15:44:44.936Z,1011.76
2018-10-16T15:45:44.889Z,1011.74
2018-10-16T15:46:45.525Z,1011.74
2018-10-16T15:48:45.369Z,1011.75
2018-10-16T15:49:44.787Z,1011.74
2018-10-16T15:50:45.024Z,1011.77
2018-10-16T15:51:45.196Z,1011.79
2018-10-16T15:52:45.646Z,1011.76
2018-10-16T15:53:44.902Z,1011.76
2018-10-16T15:55:44.938Z,1011.84
2018-10-16T15:56:44.742Z,1011.79
2018-10-16T15:57:44.910Z,1011.78
2018-10-16T15:58:44.687Z,1011.77
2018-10-16T15:59:44.712Z,1011.81
2018-10-16T16:00:44.805Z,1011.81
2018-10-16T16:01:44.618Z,1011.74
2018-10-16T16:02:45.391Z,1011.79
2018-10-16T16:03:44.652Z,1011.74
2018-10-16T16:05:44.538Z,1011.76
2018-10-16T16:06:44.526Z,1011.77
2018-10-16T16:07:44.520Z,1011.77
2018-10-16T16:08:44.509Z,1011.81
2018-10-16T16:09:44.843Z,1011.78
2018-10-16T16:10:44.550Z,1011.82
2018-10-16T16:11:44.555Z,1011.82
2018-10-16T16:12:44.577Z,1011.85
2018-10-16T16:14:44.514Z,1011.86
2018-10-16T16:15:44.487Z,1011.89
2018-10-16T16:16:44.789Z,1011.85
2018-10-16T16:17:44.476Z,1011.87
2018-10-16T16:18:44.462Z,1011.85
2018-10-16T16:19:44.472Z,1011.87
2018-10-16T16:20:44.443Z,1011.83
2018-10-16T16:21:44.363Z,1011.85
2018-10-16T16:22:44.442Z,1011.81
2018-10-16T16:23:45.123Z,1011.85
2018-10-16T16:24:44.572Z,1011.89
2018-10-16T16:25:44.353Z,1011.89
2018-10-16T16:26:44.348Z,1011.86
2018-10-16T16:27:47.408Z,1011.85
2018-10-16T16:28:44.278Z,1011.90
2018-10-16T16:29:44.269Z,1011.81
2018-10-16T16:30:44.822Z,1011.86
2018-10-16T16:31:44.347Z,1011.85
2018-10-16T16:32:44.327Z,1011.89
2018-10-16T16:33:44.293Z,1011.88
2018-10-16T16:34:44.226Z,1011.94
2018-10-16T16:35:44.203Z,1011.92
2018-10-16T16:36:44.304Z,1011.92